Impacts METAR Board
IDs:

KORD - Chicago/O'Hare Intl, IL, US

Updated at: 0100 UTC 18 Aug 2018
Potential Impact None Slight Moderate High
Time 17/13Z 17/14Z 17/15Z 17/16Z 17/17Z 17/18Z 17/19Z 17/20Z 17/21Z 17/22Z 17/23Z 18/00Z 18/01Z
Temp70 71 73 74 76 78 78 81 83 82 80 79 77
Dewpt67 67 68 68 68 67 66 68 67 67 67 65 65
Altim29.96 29.95 29.94 29.95 29.96 29.96 29.95 29.94 29.93 29.93 29.94 29.95 29.98
VIS5 5 5 5 7 10 10 10 10 10 10 10 10
CIG11 8 7 10 20 27 30 55 -- -- -- -- --
CoverOVCOVCBKNBKNBKNBKNBKNBKNSCTSCTSCTSCTSCT
FltCatMVFRIFRIFRMVFRMVFRMVFRMVFRVFRVFRVFRVFRVFRVFR
WXBR-RA BRBRBR------------------
WDir31027000220260807035050505060
WSpd3 3 0 0 3 4 8 4 3 8 11 8 6
WGst-- -- -- -- -- -- -- -- -- -- -- -- --
Raw hourly METARs
KORD 171251Z 31003KT 5SM BR BKN011 BKN023 OVC140 21/19 A2996 RMK AO2 SLP139 T02110194
KORD 171351Z 27003KT 5SM -RA BR BKN008 OVC120 22/19 A2995 RMK AO2 RAB46 SLP137 P0000 T02170194
KORD 171451Z 00000KT 5SM BR BKN007 BKN030 BKN200 23/20 A2994 RMK AO2 RAE06 SLP135 P0000 60000 T02280200 58004
KORD 171551Z 00000KT 5SM BR BKN010 BKN200 23/20 A2995 RMK AO2 SLP137 T02330200
KORD 171651Z 22003KT 7SM BKN020 24/20 A2996 RMK AO2 SLP139 T02440200
KORD 171751Z 26004KT 10SM FEW017 BKN027 26/19 A2996 RMK AO2 SLP141 60000 T02560194 10261 20211 51005
KORD 171851Z 08008KT 10SM SCT024 BKN030CB BKN055 26/19 A2995 RMK AO2 SLP139 CB SE MOV SE T02560189
KORD 171951Z 07004KT 10SM FEW024 SCT030 BKN055 BKN250 27/20 A2994 RMK AO2 SLP133 T02720200
KORD 172051Z 35003KT 10SM FEW030 SCT055 SCT250 28/19 A2993 RMK AO2 SLP130 T02830194 58010
KORD 172151Z 05008KT 10SM FEW020 FEW037 SCT055 SCT250 28/19 A2993 RMK AO2 SLP130 T02780194
KORD 172251Z 05011KT 10SM FEW020 FEW037 SCT055 SCT250 27/19 A2994 RMK AO2 SLP136 T02670194
KORD 172351Z 05008KT 10SM FEW020 FEW031 SCT055 SCT250 26/18 A2995 RMK AO2 LTG DSNT SW SLP138 CB DSNT SW AND N MOV E T02610183 10294 20250 53008
KORD 180051Z 06006KT 10SM SCT031 SCT055 SCT250 25/18 A2998 RMK AO2 SLP146 CB DSNT S AND N MOV SE T02500183



Page loaded:  01:26 UTC  |   06:26 PM Pacific  |   07:26 PM Mountain  |   08:26 PM Central  |   09:26 PM Eastern

 

ADVISORIES

FORECASTS

FORECASTS

OBSERVATIONS

USER TOOLS

ABOUT US